To NAV CANADA Home Page Login to a new session Search on AWWS site Feedback and Comments Disclaimer Vers la page française équivalente Tips FAQ What's new on the site To the Forecasts and Observations / NOTAM section To "File a Flight Plan" website Publications and other links Update of the User's profile FIC Telephone Numbers My Weather Data Folder Route Weather Data Regional Weather Data Local Weather Data To the Forecasts and Observations / NOTAM section
Request Generated 07/30/2015 at 12:06:14 UTC . Weather information available at that time is displayed.

METAR/TAF

SCHEFFERVILLE/QC    (show WxCam)

METAR CYKL 301200Z AUTO 16006KT 9SM CLR 19/14 A2976 RMK SLP083
DENSITY ALT 2700FT=
METAR CYKL 301100Z AUTO 16008KT 9SM CLR 17/14 A2978 RMK SLP088
DENSITY ALT 2400FT=
METAR CYKL 301000Z AUTO 16008KT 9SM CLR 15/13 A2977 RMK SLP088
DENSITY ALT 2200FT=

TAF CYKL 300738Z 3008/3020 16008KT P6SM FEW070
FM301400 18012G22KT P6SM SCT050 TEMPO 3014/3020 BKN050
RMK FCST BASED ON AUTO OBS. NXT FCST BY 301400Z=
Your time UTC time
Weather data provided by Environment Canada and NAV CANADA